createdAt,value
2018-03-16T00:02:22.026Z,5.30
2018-03-16T00:04:50.306Z,4.70
2018-03-16T00:07:19.262Z,5.53
2018-03-16T00:09:47.687Z,5.13
2018-03-16T00:12:15.979Z,4.82
2018-03-16T00:14:44.281Z,4.97
2018-03-16T00:17:12.634Z,5.27
2018-03-16T00:19:40.910Z,5.10
2018-03-16T00:22:12.752Z,5.60
2018-03-16T00:24:41.133Z,5.60
2018-03-16T00:27:09.471Z,4.80
2018-03-16T00:29:37.837Z,5.90
2018-03-16T00:32:06.117Z,5.77
2018-03-16T00:34:34.482Z,5.47
2018-03-16T00:37:02.839Z,4.90
2018-03-16T00:39:31.171Z,6.37
2018-03-16T00:41:59.457Z,4.63
2018-03-16T00:44:27.768Z,5.90
2018-03-16T00:46:56.043Z,5.40
2018-03-16T00:49:24.338Z,5.10
2018-03-16T00:51:52.591Z,5.53
2018-03-16T00:54:20.900Z,5.80
2018-03-16T00:56:49.152Z,6.43
2018-03-16T00:59:17.428Z,5.43
2018-03-16T01:01:45.691Z,6.53
2018-03-16T01:04:13.976Z,5.10
2018-03-16T01:06:42.266Z,5.20
2018-03-16T01:09:10.567Z,5.62
2018-03-16T01:11:38.834Z,6.27
2018-03-16T01:14:07.108Z,6.50
2018-03-16T01:16:35.446Z,7.37
2018-03-16T01:19:03.708Z,5.70
2018-03-16T01:21:32.011Z,8.77
2018-03-16T01:24:00.284Z,7.60
2018-03-16T01:26:28.586Z,6.70
2018-03-16T01:28:56.859Z,6.40
2018-03-16T01:31:25.145Z,11.23
2018-03-16T01:33:53.435Z,10.67
2018-03-16T01:36:21.772Z,11.38
2018-03-16T01:38:50.076Z,10.13
2018-03-16T01:41:18.373Z,11.73
2018-03-16T01:43:46.653Z,12.50
2018-03-16T01:46:14.972Z,8.55
2018-03-16T01:48:43.268Z,8.33
2018-03-16T01:51:11.562Z,5.95
2018-03-16T01:53:39.811Z,6.17
2018-03-16T01:56:08.103Z,8.33
2018-03-16T01:58:36.374Z,6.67
2018-03-16T02:01:04.690Z,6.80
2018-03-16T02:03:32.983Z,10.97
2018-03-16T02:06:01.288Z,17.50
2018-03-16T02:08:29.571Z,18.67
2018-03-16T02:10:57.880Z,19.10
2018-03-16T02:13:26.193Z,14.17
2018-03-16T02:15:54.497Z,17.97
2018-03-16T02:18:22.801Z,15.23
2018-03-16T02:20:51.409Z,18.75
2018-03-16T02:23:19.748Z,15.20
2018-03-16T02:25:48.023Z,17.13
2018-03-16T02:28:16.342Z,15.95
2018-03-16T02:30:44.601Z,13.83
2018-03-16T02:33:12.960Z,10.75
2018-03-16T02:35:41.227Z,11.18
2018-03-16T02:38:09.517Z,9.95
2018-03-16T02:40:37.791Z,11.27
2018-03-16T02:43:06.081Z,10.27
2018-03-16T02:45:34.380Z,12.33
2018-03-16T02:48:02.710Z,7.03
2018-03-16T02:50:30.997Z,6.40
2018-03-16T02:52:59.287Z,10.27
2018-03-16T02:55:28.059Z,10.73
2018-03-16T02:57:56.393Z,8.30
2018-03-16T03:00:24.655Z,18.73
2018-03-16T03:02:52.955Z,6.90
2018-03-16T03:05:21.286Z,4.60
2018-03-16T03:07:49.540Z,5.07
2018-03-16T03:10:17.853Z,4.60
2018-03-16T03:12:46.116Z,5.17
2018-03-16T03:15:14.416Z,5.30
2018-03-16T03:17:42.672Z,5.25
2018-03-16T03:20:11.175Z,5.35
2018-03-16T03:22:39.481Z,5.10
2018-03-16T03:25:07.812Z,5.30
2018-03-16T03:27:36.083Z,5.00
2018-03-16T03:30:05.183Z,6.68
2018-03-16T03:32:33.475Z,6.37
2018-03-16T03:35:01.807Z,4.87
2018-03-16T03:37:30.073Z,4.47
2018-03-16T03:39:58.382Z,4.60
2018-03-16T03:42:26.636Z,6.53
2018-03-16T03:44:54.925Z,4.83
2018-03-16T03:47:23.207Z,7.90
2018-03-16T03:49:51.488Z,4.33
2018-03-16T03:52:19.771Z,4.53
2018-03-16T03:54:48.062Z,7.90
2018-03-16T03:57:16.390Z,5.03
2018-03-16T03:59:44.662Z,4.05
2018-03-16T04:02:12.951Z,4.50
2018-03-16T04:04:41.248Z,3.90
2018-03-16T04:07:09.530Z,4.37
2018-03-16T04:09:37.792Z,5.70
2018-03-16T04:12:06.083Z,6.13
2018-03-16T04:14:34.580Z,6.77
2018-03-16T04:17:02.888Z,3.33
2018-03-16T04:19:31.134Z,5.33
2018-03-16T04:21:59.426Z,4.63
2018-03-16T04:24:27.671Z,4.67
2018-03-16T04:26:55.968Z,5.40
2018-03-16T04:29:24.217Z,7.03
2018-03-16T04:31:52.504Z,7.57
2018-03-16T04:34:20.801Z,12.57
2018-03-16T04:36:49.122Z,13.23
2018-03-16T04:39:17.439Z,15.15
2018-03-16T04:41:45.740Z,16.27
2018-03-16T04:44:14.003Z,10.57
2018-03-16T04:46:42.300Z,7.13
2018-03-16T04:49:10.566Z,7.40
2018-03-16T04:51:38.871Z,4.53
2018-03-16T04:54:07.137Z,3.60
2018-03-16T04:56:35.445Z,8.43
2018-03-16T04:59:03.688Z,5.63
2018-03-16T05:01:31.964Z,8.30
2018-03-16T05:04:00.267Z,6.00
2018-03-16T05:06:28.557Z,4.60
2018-03-16T05:08:56.836Z,6.13
2018-03-16T05:11:25.121Z,12.03
2018-03-16T05:13:53.447Z,15.30
2018-03-16T05:16:21.722Z,14.73
2018-03-16T05:18:50.027Z,16.53
2018-03-16T05:21:18.302Z,15.53
2018-03-16T05:23:46.595Z,26.40
2018-03-16T05:26:14.872Z,6.57
2018-03-16T05:28:43.178Z,4.80
2018-03-16T05:31:11.435Z,4.47
2018-03-16T05:33:39.735Z,5.57
2018-03-16T05:36:08.011Z,6.70
2018-03-16T05:38:36.307Z,10.93
2018-03-16T05:41:04.582Z,13.10
2018-03-16T05:43:32.889Z,7.50
2018-03-16T05:46:01.129Z,6.47
2018-03-16T05:48:29.446Z,6.40
2018-03-16T05:50:57.684Z,4.97
2018-03-16T05:53:25.975Z,11.70
2018-03-16T05:55:54.256Z,4.90
2018-03-16T05:58:22.620Z,7.40
2018-03-16T06:00:51.006Z,9.20
2018-03-16T06:03:19.288Z,9.30
2018-03-16T06:05:47.557Z,7.32
2018-03-16T06:08:15.983Z,9.63
2018-03-16T06:10:44.248Z,8.20
2018-03-16T06:13:12.552Z,14.10
2018-03-16T06:15:40.856Z,14.17
2018-03-16T06:18:09.138Z,12.80
2018-03-16T06:20:37.423Z,5.13
2018-03-16T06:23:05.699Z,3.70
2018-03-16T06:25:34.025Z,4.93
2018-03-16T06:28:02.314Z,6.33
2018-03-16T06:30:30.590Z,7.80
2018-03-16T06:32:58.841Z,5.37
2018-03-16T06:35:27.140Z,10.00
2018-03-16T06:37:55.411Z,4.50
2018-03-16T06:40:23.783Z,7.43
2018-03-16T06:42:52.016Z,8.40
2018-03-16T06:45:20.311Z,10.17
2018-03-16T06:47:48.649Z,6.90
2018-03-16T06:50:16.938Z,5.85
2018-03-16T06:52:45.250Z,7.07
2018-03-16T06:55:13.530Z,6.47
2018-03-16T06:57:41.828Z,8.83
2018-03-16T07:00:10.076Z,5.97
2018-03-16T07:02:38.372Z,5.33
2018-03-16T07:05:06.677Z,4.97
2018-03-16T07:07:34.978Z,7.27
2018-03-16T07:10:03.305Z,7.43
2018-03-16T07:12:31.683Z,6.60
2018-03-16T07:15:11.838Z,3.93
2018-03-16T07:17:40.149Z,4.10
2018-03-16T07:20:08.432Z,4.00
2018-03-16T07:22:36.740Z,4.87
2018-03-16T07:25:05.518Z,4.93
2018-03-16T07:27:33.810Z,4.83
2018-03-16T07:30:02.093Z,5.07
2018-03-16T07:32:30.403Z,4.77
2018-03-16T07:34:58.703Z,4.60
2018-03-16T07:37:26.975Z,4.93
2018-03-16T07:39:55.248Z,5.93
2018-03-16T07:42:23.880Z,6.43
2018-03-16T07:44:52.188Z,5.73
2018-03-16T07:47:20.532Z,5.30
2018-03-16T07:49:48.824Z,6.23
2018-03-16T07:52:17.170Z,5.05
2018-03-16T07:54:45.466Z,7.23
2018-03-16T07:57:13.872Z,4.97
2018-03-16T07:59:42.130Z,14.47
2018-03-16T08:02:10.552Z,4.73
2018-03-16T08:04:38.828Z,10.35
2018-03-16T08:07:07.406Z,6.80
2018-03-16T08:09:35.964Z,5.40
2018-03-16T08:12:04.336Z,6.47
2018-03-16T08:14:32.653Z,4.47
2018-03-16T08:17:00.914Z,5.93
2018-03-16T08:19:29.782Z,6.80
2018-03-16T08:21:58.259Z,4.30
2018-03-16T08:24:26.538Z,4.87
2018-03-16T08:26:54.882Z,4.20
2018-03-16T08:29:23.228Z,6.43
2018-03-16T08:31:51.595Z,5.03
2018-03-16T08:34:20.137Z,8.32
2018-03-16T08:36:48.478Z,8.67
2018-03-16T08:39:16.818Z,8.03
2018-03-16T08:41:45.137Z,8.20
2018-03-16T08:44:14.019Z,7.40
2018-03-16T08:46:43.079Z,12.77
2018-03-16T08:49:11.421Z,10.70
2018-03-16T08:51:39.696Z,5.80
2018-03-16T08:54:08.438Z,5.62
2018-03-16T08:56:36.750Z,8.63
2018-03-16T08:59:05.146Z,9.33
2018-03-16T09:01:33.853Z,6.10
2018-03-16T09:04:02.219Z,8.60
2018-03-16T09:06:30.536Z,7.83
2018-03-16T09:08:59.739Z,7.27
2018-03-16T09:11:28.022Z,10.20
2018-03-16T09:13:56.377Z,10.20
2018-03-16T09:16:25.622Z,11.03
2018-03-16T09:18:53.958Z,12.50
2018-03-16T09:21:22.327Z,9.85
2018-03-16T09:23:50.599Z,9.70
2018-03-16T09:26:18.984Z,11.13
2018-03-16T09:28:47.282Z,15.03
2018-03-16T09:31:16.409Z,10.77
2018-03-16T09:33:44.674Z,8.83
2018-03-16T09:36:13.024Z,12.03
2018-03-16T09:38:41.395Z,12.07
2018-03-16T09:41:09.672Z,17.62
2018-03-16T09:43:37.979Z,17.87
2018-03-16T09:46:07.305Z,15.35
2018-03-16T09:48:35.611Z,13.53
2018-03-16T09:51:04.020Z,11.67
2018-03-16T09:53:32.291Z,23.23
2018-03-16T09:56:00.638Z,12.50
2018-03-16T09:58:28.953Z,15.43
2018-03-16T10:00:57.659Z,28.00
2018-03-16T10:03:27.468Z,10.68
2018-03-16T10:05:55.752Z,9.80
2018-03-16T10:08:24.070Z,11.43
2018-03-16T10:10:52.376Z,13.60
2018-03-16T10:13:20.779Z,11.93
2018-03-16T10:15:49.161Z,12.00
2018-03-16T10:18:17.798Z,11.80
2018-03-16T10:20:46.048Z,12.30
2018-03-16T10:23:14.499Z,14.83
2018-03-16T10:25:42.790Z,15.53
2018-03-16T10:28:11.105Z,15.80
2018-03-16T10:30:39.411Z,13.13
2018-03-16T10:33:08.647Z,7.37
2018-03-16T10:35:36.969Z,9.77
2018-03-16T10:38:05.338Z,12.07
2018-03-16T10:40:33.648Z,11.07
2018-03-16T10:43:01.940Z,16.20
2018-03-16T10:45:30.321Z,11.53
2018-03-16T10:47:58.700Z,11.20
2018-03-16T10:50:26.958Z,13.30
2018-03-16T10:52:55.278Z,12.87
2018-03-16T10:55:23.748Z,16.70
2018-03-16T10:57:52.071Z,12.50
2018-03-16T11:00:25.874Z,11.02
2018-03-16T11:02:54.192Z,7.07
2018-03-16T11:05:28.092Z,5.87
2018-03-16T11:07:58.236Z,7.73
2018-03-16T11:10:26.524Z,12.57
2018-03-16T11:12:55.711Z,12.37
2018-03-16T11:15:24.335Z,8.07
2018-03-16T11:17:52.768Z,7.07
2018-03-16T11:20:22.199Z,7.60
2018-03-16T11:22:50.491Z,4.63
2018-03-16T11:25:18.783Z,5.57
2018-03-16T11:27:47.068Z,8.63
2018-03-16T11:30:15.393Z,8.77
2018-03-16T11:32:43.749Z,5.57
2018-03-16T11:35:12.071Z,8.03
2018-03-16T11:37:40.336Z,7.23
2018-03-16T11:40:08.670Z,9.10
2018-03-16T11:42:37.075Z,4.80
2018-03-16T11:45:05.348Z,4.00
2018-03-16T11:47:33.633Z,3.28
2018-03-16T11:50:01.937Z,8.40
2018-03-16T11:52:30.244Z,4.20
2018-03-16T11:54:58.572Z,3.83
2018-03-16T11:57:26.864Z,8.43
2018-03-16T11:59:55.192Z,7.20
2018-03-16T12:02:23.493Z,3.00
2018-03-16T12:04:52.477Z,4.37
2018-03-16T12:07:20.831Z,4.87
2018-03-16T12:09:49.101Z,5.93
2018-03-16T12:12:17.415Z,4.45
2018-03-16T12:14:45.705Z,5.13
2018-03-16T12:17:14.101Z,3.15
2018-03-16T12:19:42.431Z,6.17
2018-03-16T12:22:11.013Z,4.80
2018-03-16T12:24:39.342Z,3.70
2018-03-16T12:27:07.656Z,2.00
2018-03-16T12:29:35.987Z,4.93
2018-03-16T12:32:04.884Z,6.12
2018-03-16T12:34:33.156Z,2.83
2018-03-16T12:37:01.445Z,6.63
2018-03-16T12:39:30.109Z,5.83
2018-03-16T12:41:58.416Z,3.60
2018-03-16T12:44:26.732Z,2.80
2018-03-16T12:46:55.939Z,4.17
2018-03-16T12:49:24.374Z,2.23
2018-03-16T12:51:52.734Z,1.92
2018-03-16T12:54:21.113Z,2.67
2018-03-16T12:56:49.442Z,4.80
2018-03-16T12:59:17.737Z,5.00
2018-03-16T13:01:46.075Z,4.57
2018-03-16T13:04:14.398Z,5.47
2018-03-16T13:06:42.696Z,6.13
2018-03-16T13:09:11.011Z,5.53
2018-03-16T13:11:39.433Z,2.33
2018-03-16T13:14:07.758Z,3.33
2018-03-16T13:16:36.043Z,4.77
2018-03-16T13:19:05.136Z,4.45
2018-03-16T13:21:33.387Z,7.30
2018-03-16T13:24:01.689Z,7.20
2018-03-16T13:26:30.008Z,5.10
2018-03-16T13:28:58.346Z,3.27
2018-03-16T13:31:26.734Z,2.83
2018-03-16T13:33:55.070Z,4.90
2018-03-16T13:36:23.406Z,7.80
2018-03-16T13:38:51.864Z,8.87
2018-03-16T13:41:20.141Z,22.67
2018-03-16T13:43:48.464Z,7.60
2018-03-16T13:46:16.839Z,7.33
2018-03-16T13:48:45.156Z,4.67
2018-03-16T13:51:13.418Z,5.10
2018-03-16T13:53:42.060Z,9.33
2018-03-16T13:56:10.391Z,4.20
2018-03-16T13:58:39.541Z,10.90
2018-03-16T14:01:07.805Z,8.07
2018-03-16T14:03:36.133Z,7.63
2018-03-16T14:06:04.664Z,8.13
2018-03-16T14:08:33.686Z,5.03
2018-03-16T14:11:02.097Z,3.53
2018-03-16T14:13:31.045Z,9.40
2018-03-16T14:15:59.481Z,8.73
2018-03-16T14:18:31.563Z,10.87
2018-03-16T14:20:59.888Z,10.47
2018-03-16T14:23:28.202Z,11.70
2018-03-16T14:25:56.560Z,7.13
2018-03-16T14:28:25.765Z,9.55
2018-03-16T14:30:54.641Z,5.77
2018-03-16T14:33:22.966Z,10.20
2018-03-16T14:35:51.537Z,9.10
2018-03-16T14:38:19.807Z,5.97
2018-03-16T14:40:48.104Z,8.73
2018-03-16T14:43:16.370Z,8.90
2018-03-16T14:45:44.710Z,7.40
2018-03-16T14:48:12.986Z,3.77
2018-03-16T14:50:41.307Z,6.07
2018-03-16T14:53:09.581Z,8.87
2018-03-16T14:55:38.666Z,9.20
2018-03-16T14:58:06.970Z,7.43
2018-03-16T15:00:35.290Z,8.27
2018-03-16T15:03:03.570Z,11.87
2018-03-16T15:05:32.803Z,9.38
2018-03-16T15:08:01.173Z,4.30
2018-03-16T15:10:30.631Z,7.23
2018-03-16T15:13:02.800Z,9.43
2018-03-16T15:15:31.432Z,6.93
2018-03-16T15:18:00.276Z,8.97
2018-03-16T15:20:28.577Z,11.83
2018-03-16T15:22:56.954Z,15.03
2018-03-16T15:25:25.230Z,11.95
2018-03-16T15:27:53.638Z,10.73
2018-03-16T15:30:22.730Z,9.52
2018-03-16T15:32:51.029Z,7.32
2018-03-16T15:35:19.340Z,6.47
2018-03-16T15:37:47.675Z,7.60
2018-03-16T15:40:16.617Z,5.72
2018-03-16T15:42:44.952Z,5.90
2018-03-16T15:45:13.232Z,10.68
2018-03-16T15:47:41.596Z,5.13
2018-03-16T15:50:09.931Z,8.77
2018-03-16T15:52:38.222Z,4.43
2018-03-16T15:55:07.432Z,6.33
2018-03-16T15:57:36.118Z,9.00
2018-03-16T16:00:05.672Z,8.20
2018-03-16T16:02:34.036Z,4.27
2018-03-16T16:05:02.282Z,6.20
2018-03-16T16:07:31.047Z,6.83
2018-03-16T16:09:59.758Z,7.00
2018-03-16T16:12:28.061Z,3.50
2018-03-16T16:14:56.358Z,7.30
2018-03-16T16:17:24.635Z,5.83
2018-03-16T16:19:52.977Z,6.80
2018-03-16T16:22:21.291Z,5.33
2018-03-16T16:24:49.609Z,5.50
2018-03-16T16:27:17.912Z,5.53
2018-03-16T16:29:47.422Z,6.60
2018-03-16T16:32:18.344Z,8.73
2018-03-16T16:34:46.653Z,8.53
2018-03-16T16:37:14.935Z,6.75
2018-03-16T16:39:43.252Z,5.23
2018-03-16T16:42:11.519Z,5.32
2018-03-16T16:44:39.823Z,9.03
2018-03-16T16:47:08.200Z,5.63
2018-03-16T16:49:36.498Z,6.83
2018-03-16T16:52:04.754Z,7.80
2018-03-16T16:54:33.597Z,8.60
2018-03-16T16:57:01.868Z,10.63
2018-03-16T16:59:30.217Z,6.65
2018-03-16T17:01:58.515Z,6.60
2018-03-16T17:04:26.801Z,4.53
2018-03-16T17:06:58.183Z,7.10
2018-03-16T17:09:33.947Z,8.43
2018-03-16T17:12:03.097Z,3.60
2018-03-16T17:14:32.344Z,7.13
2018-03-16T17:17:06.292Z,4.53
2018-03-16T17:19:35.736Z,5.30
2018-03-16T17:22:05.217Z,7.27
2018-03-16T17:24:34.019Z,5.17
2018-03-16T17:27:02.325Z,8.43
2018-03-16T17:29:30.616Z,6.70
2018-03-16T17:31:58.971Z,4.60
2018-03-16T17:34:27.304Z,5.97
2018-03-16T17:36:55.618Z,11.00
2018-03-16T17:39:23.902Z,9.03
2018-03-16T17:41:52.201Z,5.53
2018-03-16T17:44:20.502Z,8.90
2018-03-16T17:46:48.862Z,7.33
2018-03-16T17:49:17.158Z,7.00
2018-03-16T17:51:45.518Z,12.07
2018-03-16T17:54:13.782Z,5.70
2018-03-16T17:56:42.108Z,8.37
2018-03-16T17:59:10.494Z,7.65
2018-03-16T18:01:38.828Z,4.00
2018-03-16T18:04:07.090Z,16.03
2018-03-16T18:06:35.395Z,3.07
2018-03-16T18:09:03.668Z,6.80
2018-03-16T18:11:31.987Z,8.43
2018-03-16T18:14:00.296Z,3.50
2018-03-16T18:16:28.612Z,6.07
2018-03-16T18:18:56.892Z,9.07
2018-03-16T18:21:25.218Z,5.07
2018-03-16T18:23:53.517Z,4.47
2018-03-16T18:26:22.611Z,7.12
2018-03-16T18:28:50.920Z,7.73
2018-03-16T18:31:19.191Z,11.97
2018-03-16T18:33:47.486Z,6.63
2018-03-16T18:36:15.825Z,10.40
2018-03-16T18:38:44.190Z,5.50
2018-03-16T18:41:12.453Z,7.00
2018-03-16T18:43:40.810Z,4.60
2018-03-16T18:46:09.063Z,7.53
2018-03-16T18:48:37.426Z,10.53
2018-03-16T18:51:05.693Z,5.33
2018-03-16T18:53:34.031Z,5.60
2018-03-16T18:56:02.314Z,6.90
2018-03-16T18:58:30.587Z,6.70
2018-03-16T19:00:58.862Z,8.20
2018-03-16T19:03:27.147Z,7.90
2018-03-16T19:05:56.050Z,11.43
2018-03-16T19:08:24.375Z,8.13
2018-03-16T19:10:52.695Z,7.07
2018-03-16T19:13:20.982Z,8.27
2018-03-16T19:15:49.286Z,11.13
2018-03-16T19:18:18.037Z,7.93
2018-03-16T19:20:46.310Z,8.13
2018-03-16T19:23:14.679Z,11.30
2018-03-16T19:25:43.162Z,16.73
2018-03-16T19:28:12.705Z,18.83
2018-03-16T19:30:41.772Z,13.00
2018-03-16T19:33:10.042Z,9.07
2018-03-16T19:35:38.339Z,8.20
2018-03-16T19:38:07.511Z,7.43
2018-03-16T19:40:35.837Z,8.60
2018-03-16T19:43:05.082Z,8.63
2018-03-16T19:45:33.988Z,6.40
2018-03-16T19:48:02.264Z,8.70
2018-03-16T19:50:30.598Z,7.87
2018-03-16T19:52:58.898Z,6.83
2018-03-16T19:55:27.252Z,11.87
2018-03-16T19:57:55.551Z,15.13
2018-03-16T20:00:23.857Z,6.13
2018-03-16T20:02:52.137Z,6.23
2018-03-16T20:05:20.416Z,5.97
2018-03-16T20:07:48.716Z,6.13
2018-03-16T20:10:17.017Z,9.07
2018-03-16T20:12:46.346Z,9.63
2018-03-16T20:15:14.792Z,6.17
2018-03-16T20:17:43.064Z,5.25
2018-03-16T20:20:11.421Z,8.57
2018-03-16T20:22:39.778Z,4.93
2018-03-16T20:25:08.417Z,4.10
2018-03-16T20:27:36.749Z,5.83
2018-03-16T20:30:05.036Z,12.33
2018-03-16T20:32:33.404Z,14.80
2018-03-16T20:35:03.536Z,6.53
2018-03-16T20:37:32.931Z,5.80
2018-03-16T20:40:01.230Z,12.00
2018-03-16T20:42:29.553Z,3.00
2018-03-16T20:44:57.838Z,4.60
2018-03-16T20:47:26.118Z,9.57
2018-03-16T20:49:54.480Z,7.30
2018-03-16T20:52:22.811Z,9.07
2018-03-16T20:54:51.075Z,8.40
2018-03-16T20:57:19.388Z,7.80
2018-03-16T20:59:47.667Z,4.50
2018-03-16T21:02:15.963Z,9.18
2018-03-16T21:04:44.295Z,7.03
2018-03-16T21:07:12.591Z,7.78
2018-03-16T21:09:40.877Z,12.97
2018-03-16T21:12:09.191Z,11.25
2018-03-16T21:14:37.432Z,6.43
2018-03-16T21:17:05.792Z,6.87
2018-03-16T21:19:34.081Z,6.60
2018-03-16T21:22:02.380Z,6.77
2018-03-16T21:24:30.674Z,6.70
2018-03-16T21:26:58.996Z,6.77
2018-03-16T21:29:27.303Z,7.20
2018-03-16T21:31:55.625Z,7.03
2018-03-16T21:34:23.929Z,5.55
2018-03-16T21:36:52.278Z,11.50
2018-03-16T21:39:20.602Z,6.72
2018-03-16T21:41:49.648Z,7.20
2018-03-16T21:44:23.510Z,6.65
2018-03-16T21:46:53.160Z,7.27
2018-03-16T21:49:21.467Z,5.33
2018-03-16T21:51:49.734Z,8.30
2018-03-16T21:54:18.688Z,8.90
2018-03-16T21:56:46.963Z,9.32
2018-03-16T21:59:15.286Z,9.88
2018-03-16T22:01:43.572Z,11.70
2018-03-16T22:04:16.549Z,13.52
2018-03-16T22:06:47.749Z,9.43
2018-03-16T22:09:16.123Z,10.80
2018-03-16T22:11:44.407Z,15.70
2018-03-16T22:14:12.714Z,8.30
2018-03-16T22:16:41.023Z,12.57
2018-03-16T22:19:10.128Z,8.65
2018-03-16T22:21:38.514Z,14.60
2018-03-16T22:24:06.949Z,13.83
2018-03-16T22:26:35.219Z,13.10
2018-03-16T22:29:03.537Z,13.80
2018-03-16T22:31:31.838Z,14.10
2018-03-16T22:34:00.123Z,13.30
2018-03-16T22:36:28.435Z,16.00
2018-03-16T22:38:56.734Z,17.20
2018-03-16T22:41:25.024Z,19.87
2018-03-16T22:43:53.312Z,15.80
2018-03-16T22:46:21.608Z,16.23
2018-03-16T22:48:49.876Z,15.83
2018-03-16T22:51:19.092Z,17.03
2018-03-16T22:53:47.380Z,20.47
2018-03-16T22:56:15.700Z,27.25
2018-03-16T22:58:44.056Z,19.47
2018-03-16T23:01:12.371Z,21.10
2018-03-16T23:03:40.682Z,24.33
2018-03-16T23:06:09.033Z,24.50
2018-03-16T23:08:37.304Z,24.90
2018-03-16T23:11:05.813Z,23.12
2018-03-16T23:13:34.109Z,25.00
2018-03-16T23:16:06.373Z,20.33
2018-03-16T23:18:35.313Z,21.10
2018-03-16T23:21:03.621Z,24.08
2018-03-16T23:23:32.202Z,22.63
2018-03-16T23:26:00.537Z,18.00
2018-03-16T23:28:28.814Z,20.60
2018-03-16T23:30:57.234Z,18.55
2018-03-16T23:33:25.510Z,16.60
2018-03-16T23:35:53.796Z,20.50
2018-03-16T23:38:22.127Z,17.98
2018-03-16T23:40:50.424Z,17.00
2018-03-16T23:43:18.741Z,18.08
2018-03-16T23:45:47.022Z,19.53
2018-03-16T23:48:15.335Z,16.63
2018-03-16T23:50:43.638Z,21.07
2018-03-16T23:53:11.946Z,19.73
2018-03-16T23:55:40.214Z,17.87
2018-03-16T23:58:08.504Z,15.57
